createdAt,value
2022-09-15T00:00:07.220Z,18.78
2022-09-15T00:15:03.165Z,18.72
2022-09-15T00:30:04.192Z,18.5
2022-09-15T00:45:01.950Z,18.44
2022-09-15T00:59:59.642Z,18.67
2022-09-15T01:15:03.241Z,19.61
2022-09-15T01:30:50.548Z,19.83
2022-09-15T01:45:10.544Z,19.39
2022-09-15T02:00:03.506Z,18.78
2022-09-15T02:15:01.111Z,18.33
2022-09-15T02:30:09.283Z,18.06
2022-09-15T05:30:41.457Z,15.72
2022-09-15T05:44:59.881Z,16.06
2022-09-15T06:00:02.195Z,16.22
2022-09-15T06:15:02.653Z,16.22
2022-09-15T06:30:06.801Z,16.39
2022-09-15T06:45:02.937Z,16.72
2022-09-15T07:00:00.744Z,16.94
2022-09-15T07:15:04.586Z,17.67
2022-09-15T07:30:00.899Z,18.44
2022-09-15T07:45:03.155Z,19.28
2022-09-15T08:00:02.373Z,19.72
2022-09-15T08:15:02.975Z,19.83
2022-09-15T08:30:02.393Z,19.89
2022-09-15T08:45:01.611Z,19.94
2022-09-15T09:00:06.972Z,19.89
2022-09-15T09:15:00.211Z,19.67
2022-09-15T09:30:00.987Z,19.94
2022-09-15T09:45:04.694Z,19.94
2022-09-15T10:00:05.414Z,19.78
2022-09-15T10:15:04.614Z,19.56
2022-09-15T10:30:05.482Z,19.5
2022-09-15T10:45:01.667Z,19
2022-09-15T11:00:03.948Z,18.39
2022-09-15T11:15:04.906Z,18.33
2022-09-15T11:30:02.511Z,18.56
2022-09-15T11:45:00.272Z,19.11
2022-09-15T12:00:23.619Z,19.28
2022-09-15T12:15:05.494Z,18.22
2022-09-15T12:30:08.719Z,18.17
2022-09-15T12:45:08.018Z,18.17
2022-09-15T13:00:04.192Z,18
2022-09-15T13:15:04.321Z,18
2022-09-15T13:30:03.036Z,17.78
2022-09-15T13:45:00.554Z,16.94
2022-09-15T13:59:59.927Z,16.44
2022-09-15T14:15:06.030Z,16.11
2022-09-15T14:30:05.884Z,15.67
2022-09-15T15:00:05.936Z,15.67
2022-09-15T15:15:06.606Z,15.83
2022-09-15T15:30:08.690Z,15.89
2022-09-15T15:45:03.286Z,15.78
2022-09-15T16:00:02.389Z,15.72
2022-09-15T16:15:01.482Z,15.72
2022-09-15T16:30:05.101Z,15.72
2022-09-15T16:45:07.176Z,15.67
2022-09-15T17:00:13.815Z,15.56
2022-09-15T17:15:03.895Z,15.56
2022-09-15T17:30:04.461Z,15.39
2022-09-15T17:45:06.536Z,15.33
2022-09-15T18:00:01.120Z,15.33
2022-09-15T18:15:36.334Z,15.33
2022-09-15T18:30:11.283Z,15.44
2022-09-15T18:45:02.844Z,15.5
2022-09-15T19:00:09.446Z,15.5
2022-09-15T19:15:10.749Z,15.44
2022-09-15T19:30:06.781Z,15.44
2022-09-15T19:45:05.367Z,15.39
2022-09-15T20:00:09.970Z,15.22
2022-09-15T20:15:06.011Z,15.17
2022-09-15T20:30:02.083Z,15
2022-09-15T20:45:01.162Z,14.89
2022-09-15T21:00:06.299Z,14.83
2022-09-15T21:15:08.336Z,14.89
2022-09-15T21:29:59.891Z,14.94
2022-09-15T21:45:04.946Z,14.83
2022-09-15T21:59:59.528Z,14.78
2022-09-15T22:15:01.613Z,14.83
2022-09-15T22:30:11.187Z,14.94
2022-09-15T22:45:04.231Z,15.06
2022-09-15T23:00:04.814Z,15.06
2022-09-15T23:15:01.018Z,15.11
2022-09-15T23:30:45.047Z,15.17
2022-09-15T23:45:08.021Z,15.17
